sensor_id;sensor_type;location;lat;lon;timestamp;temperature;humidity
33067;DHT22;19428;49.024;8.366;2023-04-15T00:00:08;4.40;99.90
33067;DHT22;19428;49.024;8.366;2023-04-15T00:02:34;4.60;99.90
33067;DHT22;19428;49.024;8.366;2023-04-15T00:05:01;4.50;99.90
33067;DHT22;19428;49.024;8.366;2023-04-15T00:07:27;4.50;99.90
33067;DHT22;19428;49.024;8.366;2023-04-15T00:09:54;4.60;99.90
33067;DHT22;19428;49.024;8.366;2023-04-15T00:12:22;4.80;99.90
33067;DHT22;19428;49.024;8.366;2023-04-15T00:14:48;4.80;99.90
33067;DHT22;19428;49.024;8.366;2023-04-15T00:17:14;4.80;99.90
33067;DHT22;19428;49.024;8.366;2023-04-15T00:19:40;4.60;99.90
33067;DHT22;19428;49.024;8.366;2023-04-15T00:22:06;4.50;99.90
33067;DHT22;19428;49.024;8.366;2023-04-15T00:24:32;4.30;99.90
33067;DHT22;19428;49.024;8.366;2023-04-15T00:26:58;4.20;99.90
33067;DHT22;19428;49.024;8.366;2023-04-15T00:29:24;4.10;99.90
33067;DHT22;19428;49.024;8.366;2023-04-15T00:31:50;4.10;99.90
33067;DHT22;19428;49.024;8.366;2023-04-15T00:34:16;4.10;99.90
33067;DHT22;19428;49.024;8.366;2023-04-15T00:36:42;4.00;99.90
33067;DHT22;19428;49.024;8.366;2023-04-15T00:39:09;4.00;99.90
33067;DHT22;19428;49.024;8.366;2023-04-15T00:41:34;4.00;99.90
33067;DHT22;19428;49.024;8.366;2023-04-15T00:44:04;4.00;99.90
33067;DHT22;19428;49.024;8.366;2023-04-15T00:46:30;4.00;99.90
33067;DHT22;19428;49.024;8.366;2023-04-15T00:48:58;4.00;99.90
33067;DHT22;19428;49.024;8.366;2023-04-15T00:51:23;4.00;99.90
33067;DHT22;19428;49.024;8.366;2023-04-15T00:53:49;4.00;99.90
33067;DHT22;19428;49.024;8.366;2023-04-15T00:56:16;4.10;99.90
33067;DHT22;19428;49.024;8.366;2023-04-15T00:58:42;4.30;99.90
33067;DHT22;19428;49.024;8.366;2023-04-15T01:01:07;4.50;99.90
33067;DHT22;19428;49.024;8.366;2023-04-15T01:03:33;4.20;99.90
33067;DHT22;19428;49.024;8.366;2023-04-15T01:05:59;4.10;99.90
33067;DHT22;19428;49.024;8.366;2023-04-15T01:08:28;4.10;99.90
33067;DHT22;19428;49.024;8.366;2023-04-15T01:10:58;4.00;99.90
33067;DHT22;19428;49.024;8.366;2023-04-15T01:13:25;4.00;99.90
33067;DHT22;19428;49.024;8.366;2023-04-15T01:15:52;4.00;99.90
33067;DHT22;19428;49.024;8.366;2023-04-15T01:18:18;4.10;99.90
33067;DHT22;19428;49.024;8.366;2023-04-15T01:20:44;4.30;99.90
33067;DHT22;19428;49.024;8.366;2023-04-15T01:23:10;4.10;99.90
33067;DHT22;19428;49.024;8.366;2023-04-15T01:25:35;4.40;99.90
33067;DHT22;19428;49.024;8.366;2023-04-15T01:28:01;4.50;99.90
33067;DHT22;19428;49.024;8.366;2023-04-15T01:30:27;4.40;99.90
33067;DHT22;19428;49.024;8.366;2023-04-15T01:32:53;4.30;99.90
33067;DHT22;19428;49.024;8.366;2023-04-15T01:35:19;4.50;99.90
33067;DHT22;19428;49.024;8.366;2023-04-15T01:37:45;4.50;99.90
33067;DHT22;19428;49.024;8.366;2023-04-15T01:40:11;4.70;99.90
33067;DHT22;19428;49.024;8.366;2023-04-15T01:42:38;4.50;99.90
33067;DHT22;19428;49.024;8.366;2023-04-15T01:45:04;4.10;99.90
33067;DHT22;19428;49.024;8.366;2023-04-15T01:47:30;4.20;99.90
33067;DHT22;19428;49.024;8.366;2023-04-15T01:49:56;4.30;99.90
33067;DHT22;19428;49.024;8.366;2023-04-15T01:52:22;4.00;99.90
33067;DHT22;19428;49.024;8.366;2023-04-15T01:54:47;3.80;99.90
33067;DHT22;19428;49.024;8.366;2023-04-15T01:57:13;3.80;99.90
33067;DHT22;19428;49.024;8.366;2023-04-15T01:59:39;3.70;99.90
33067;DHT22;19428;49.024;8.366;2023-04-15T02:02:05;3.80;99.90
33067;DHT22;19428;49.024;8.366;2023-04-15T02:04:31;3.80;99.90
33067;DHT22;19428;49.024;8.366;2023-04-15T02:06:57;3.70;99.90
33067;DHT22;19428;49.024;8.366;2023-04-15T02:09:22;3.60;99.90
33067;DHT22;19428;49.024;8.366;2023-04-15T02:11:48;3.60;99.90
33067;DHT22;19428;49.024;8.366;2023-04-15T02:14:13;3.60;99.90
33067;DHT22;19428;49.024;8.366;2023-04-15T02:16:39;3.50;99.90
33067;DHT22;19428;49.024;8.366;2023-04-15T02:19:05;3.50;99.90
33067;DHT22;19428;49.024;8.366;2023-04-15T02:21:30;3.50;99.90
33067;DHT22;19428;49.024;8.366;2023-04-15T02:23:56;3.50;99.90
33067;DHT22;19428;49.024;8.366;2023-04-15T02:26:22;3.80;99.90
33067;DHT22;19428;49.024;8.366;2023-04-15T02:28:48;4.00;99.90
33067;DHT22;19428;49.024;8.366;2023-04-15T02:31:16;4.00;99.90
33067;DHT22;19428;49.024;8.366;2023-04-15T02:33:41;3.90;99.90
33067;DHT22;19428;49.024;8.366;2023-04-15T02:36:07;3.60;99.90
33067;DHT22;19428;49.024;8.366;2023-04-15T02:38:34;3.50;99.90
33067;DHT22;19428;49.024;8.366;2023-04-15T02:41:00;3.60;99.90
33067;DHT22;19428;49.024;8.366;2023-04-15T02:43:25;3.60;99.90
33067;DHT22;19428;49.024;8.366;2023-04-15T02:45:51;3.40;99.90
33067;DHT22;19428;49.024;8.366;2023-04-15T02:48:17;3.30;99.90
33067;DHT22;19428;49.024;8.366;2023-04-15T02:50:45;3.40;99.90
33067;DHT22;19428;49.024;8.366;2023-04-15T02:53:11;3.50;99.90
33067;DHT22;19428;49.024;8.366;2023-04-15T02:55:39;3.50;99.90
33067;DHT22;19428;49.024;8.366;2023-04-15T02:58:04;3.70;99.90
33067;DHT22;19428;49.024;8.366;2023-04-15T03:00:30;3.80;99.90
33067;DHT22;19428;49.024;8.366;2023-04-15T03:03:02;3.70;99.90
33067;DHT22;19428;49.024;8.366;2023-04-15T03:05:28;3.80;99.90
33067;DHT22;19428;49.024;8.366;2023-04-15T03:07:54;3.80;99.90
33067;DHT22;19428;49.024;8.366;2023-04-15T03:10:20;3.40;99.90
33067;DHT22;19428;49.024;8.366;2023-04-15T03:12:46;3.30;99.90
33067;DHT22;19428;49.024;8.366;2023-04-15T03:15:11;3.50;99.90
33067;DHT22;19428;49.024;8.366;2023-04-15T03:17:37;3.60;99.90
33067;DHT22;19428;49.024;8.366;2023-04-15T03:20:03;3.40;99.90
33067;DHT22;19428;49.024;8.366;2023-04-15T03:22:30;3.10;99.90
33067;DHT22;19428;49.024;8.366;2023-04-15T03:24:56;3.00;99.90
33067;DHT22;19428;49.024;8.366;2023-04-15T03:27:22;2.90;99.90
33067;DHT22;19428;49.024;8.366;2023-04-15T03:29:47;2.90;99.90
33067;DHT22;19428;49.024;8.366;2023-04-15T03:32:13;2.80;99.90
33067;DHT22;19428;49.024;8.366;2023-04-15T03:34:40;2.90;99.90
33067;DHT22;19428;49.024;8.366;2023-04-15T03:37:05;3.00;99.90
33067;DHT22;19428;49.024;8.366;2023-04-15T03:39:31;3.10;99.90
33067;DHT22;19428;49.024;8.366;2023-04-15T03:41:57;3.10;99.90
33067;DHT22;19428;49.024;8.366;2023-04-15T03:44:25;3.10;99.90
33067;DHT22;19428;49.024;8.366;2023-04-15T03:46:51;3.10;99.90
33067;DHT22;19428;49.024;8.366;2023-04-15T03:49:16;3.00;99.90
33067;DHT22;19428;49.024;8.366;2023-04-15T03:51:43;2.80;99.90
33067;DHT22;19428;49.024;8.366;2023-04-15T03:54:09;2.80;99.90
33067;DHT22;19428;49.024;8.366;2023-04-15T03:56:35;2.80;99.90
33067;DHT22;19428;49.024;8.366;2023-04-15T03:59:01;2.60;99.90
33067;DHT22;19428;49.024;8.366;2023-04-15T04:01:27;2.60;99.90
33067;DHT22;19428;49.024;8.366;2023-04-15T04:03:52;2.60;99.90
33067;DHT22;19428;49.024;8.366;2023-04-15T04:06:18;2.40;99.90
33067;DHT22;19428;49.024;8.366;2023-04-15T04:08:44;2.50;99.90
33067;DHT22;19428;49.024;8.366;2023-04-15T04:11:09;2.50;99.90
33067;DHT22;19428;49.024;8.366;2023-04-15T04:13:35;2.40;99.90
33067;DHT22;19428;49.024;8.366;2023-04-15T04:16:01;2.40;99.90
33067;DHT22;19428;49.024;8.366;2023-04-15T04:18:27;2.40;99.90
33067;DHT22;19428;49.024;8.366;2023-04-15T04:20:52;2.50;99.90
33067;DHT22;19428;49.024;8.366;2023-04-15T04:23:18;2.50;99.90
33067;DHT22;19428;49.024;8.366;2023-04-15T04:25:43;2.40;99.90
33067;DHT22;19428;49.024;8.366;2023-04-15T04:28:09;2.40;99.90
33067;DHT22;19428;49.024;8.366;2023-04-15T04:30:35;2.40;99.90
33067;DHT22;19428;49.024;8.366;2023-04-15T04:33:01;2.50;99.90
33067;DHT22;19428;49.024;8.366;2023-04-15T04:35:27;2.80;99.90
33067;DHT22;19428;49.024;8.366;2023-04-15T04:37:52;2.80;99.90
33067;DHT22;19428;49.024;8.366;2023-04-15T04:40:18;2.60;99.90
33067;DHT22;19428;49.024;8.366;2023-04-15T04:42:43;2.70;99.90
33067;DHT22;19428;49.024;8.366;2023-04-15T04:45:10;2.80;99.90
33067;DHT22;19428;49.024;8.366;2023-04-15T04:47:35;2.80;99.90
33067;DHT22;19428;49.024;8.366;2023-04-15T04:50:01;2.80;99.90
33067;DHT22;19428;49.024;8.366;2023-04-15T04:52:26;2.80;99.90
33067;DHT22;19428;49.024;8.366;2023-04-15T04:54:52;3.00;99.90
33067;DHT22;19428;49.024;8.366;2023-04-15T04:57:17;2.80;99.90
33067;DHT22;19428;49.024;8.366;2023-04-15T04:59:43;2.80;99.90
33067;DHT22;19428;49.024;8.366;2023-04-15T05:02:08;2.80;99.90
33067;DHT22;19428;49.024;8.366;2023-04-15T05:04:35;2.70;99.90
33067;DHT22;19428;49.024;8.366;2023-04-15T05:07:01;2.60;99.90
33067;DHT22;19428;49.024;8.366;2023-04-15T05:09:26;2.70;99.90
33067;DHT22;19428;49.024;8.366;2023-04-15T05:11:53;2.90;99.90
33067;DHT22;19428;49.024;8.366;2023-04-15T05:14:18;3.10;99.90
33067;DHT22;19428;49.024;8.366;2023-04-15T05:16:44;3.30;99.90
33067;DHT22;19428;49.024;8.366;2023-04-15T05:19:09;3.30;99.90
33067;DHT22;19428;49.024;8.366;2023-04-15T05:21:36;3.30;99.90
33067;DHT22;19428;49.024;8.366;2023-04-15T05:24:01;3.50;99.90
33067;DHT22;19428;49.024;8.366;2023-04-15T05:26:27;3.70;99.90
33067;DHT22;19428;49.024;8.366;2023-04-15T05:28:53;3.90;99.90
33067;DHT22;19428;49.024;8.366;2023-04-15T05:31:19;4.00;99.90
33067;DHT22;19428;49.024;8.366;2023-04-15T05:33:45;4.10;99.90
33067;DHT22;19428;49.024;8.366;2023-04-15T05:36:10;4.30;99.90
33067;DHT22;19428;49.024;8.366;2023-04-15T05:38:36;4.40;99.90
33067;DHT22;19428;49.024;8.366;2023-04-15T05:41:02;4.50;99.90
33067;DHT22;19428;49.024;8.366;2023-04-15T05:43:28;4.60;99.90
33067;DHT22;19428;49.024;8.366;2023-04-15T05:45:55;4.90;99.90
33067;DHT22;19428;49.024;8.366;2023-04-15T05:48:20;4.90;99.90
33067;DHT22;19428;49.024;8.366;2023-04-15T05:50:46;5.10;99.90
33067;DHT22;19428;49.024;8.366;2023-04-15T05:53:12;5.00;99.90
33067;DHT22;19428;49.024;8.366;2023-04-15T05:55:37;5.20;99.90
33067;DHT22;19428;49.024;8.366;2023-04-15T05:58:03;5.40;99.90
33067;DHT22;19428;49.024;8.366;2023-04-15T06:00:28;5.70;99.90
33067;DHT22;19428;49.024;8.366;2023-04-15T06:02:55;6.20;99.90
33067;DHT22;19428;49.024;8.366;2023-04-15T06:05:22;6.50;99.90
33067;DHT22;19428;49.024;8.366;2023-04-15T06:07:47;6.70;99.90
33067;DHT22;19428;49.024;8.366;2023-04-15T06:10:14;6.90;99.90
33067;DHT22;19428;49.024;8.366;2023-04-15T06:12:39;7.00;99.90
33067;DHT22;19428;49.024;8.366;2023-04-15T06:15:05;6.80;99.90
33067;DHT22;19428;49.024;8.366;2023-04-15T06:17:31;6.70;99.90
33067;DHT22;19428;49.024;8.366;2023-04-15T06:19:57;6.80;99.90
33067;DHT22;19428;49.024;8.366;2023-04-15T06:22:23;7.00;99.90
33067;DHT22;19428;49.024;8.366;2023-04-15T06:24:49;7.30;99.90
33067;DHT22;19428;49.024;8.366;2023-04-15T06:27:15;7.40;99.90
33067;DHT22;19428;49.024;8.366;2023-04-15T06:29:41;7.70;99.90
33067;DHT22;19428;49.024;8.366;2023-04-15T06:32:07;7.50;99.90
33067;DHT22;19428;49.024;8.366;2023-04-15T06:34:33;7.30;99.90
33067;DHT22;19428;49.024;8.366;2023-04-15T06:36:58;7.00;99.90
33067;DHT22;19428;49.024;8.366;2023-04-15T06:39:25;6.70;99.90
33067;DHT22;19428;49.024;8.366;2023-04-15T06:41:51;6.60;99.90
33067;DHT22;19428;49.024;8.366;2023-04-15T06:44:17;6.70;99.90
33067;DHT22;19428;49.024;8.366;2023-04-15T06:46:43;6.70;99.90
33067;DHT22;19428;49.024;8.366;2023-04-15T06:49:09;6.90;99.90
33067;DHT22;19428;49.024;8.366;2023-04-15T06:51:36;6.90;99.90
33067;DHT22;19428;49.024;8.366;2023-04-15T06:54:02;7.00;99.90
33067;DHT22;19428;49.024;8.366;2023-04-15T06:56:30;7.10;99.90
33067;DHT22;19428;49.024;8.366;2023-04-15T06:58:56;7.50;99.90
33067;DHT22;19428;49.024;8.366;2023-04-15T07:01:22;7.80;99.90
33067;DHT22;19428;49.024;8.366;2023-04-15T07:03:47;7.90;98.20
33067;DHT22;19428;49.024;8.366;2023-04-15T07:06:13;8.00;98.70
33067;DHT22;19428;49.024;8.366;2023-04-15T07:08:39;8.10;97.60
33067;DHT22;19428;49.024;8.366;2023-04-15T07:11:04;8.40;99.00
33067;DHT22;19428;49.024;8.366;2023-04-15T07:13:31;8.50;97.80
33067;DHT22;19428;49.024;8.366;2023-04-15T07:15:57;8.40;96.30
33067;DHT22;19428;49.024;8.366;2023-04-15T07:18:22;8.40;95.90
33067;DHT22;19428;49.024;8.366;2023-04-15T07:20:48;8.40;96.50
33067;DHT22;19428;49.024;8.366;2023-04-15T07:23:14;8.20;98.10
33067;DHT22;19428;49.024;8.366;2023-04-15T07:25:39;8.30;97.20
33067;DHT22;19428;49.024;8.366;2023-04-15T07:28:05;8.30;98.20
33067;DHT22;19428;49.024;8.366;2023-04-15T07:30:31;7.90;97.30
33067;DHT22;19428;49.024;8.366;2023-04-15T07:32:57;7.70;98.70
33067;DHT22;19428;49.024;8.366;2023-04-15T07:35:23;7.60;99.40
33067;DHT22;19428;49.024;8.366;2023-04-15T07:37:50;7.70;99.80
33067;DHT22;19428;49.024;8.366;2023-04-15T07:40:16;7.90;99.90
33067;DHT22;19428;49.024;8.366;2023-04-15T07:42:42;8.00;99.20
33067;DHT22;19428;49.024;8.366;2023-04-15T07:45:09;8.20;98.10
33067;DHT22;19428;49.024;8.366;2023-04-15T07:47:34;8.50;96.50
33067;DHT22;19428;49.024;8.366;2023-04-15T07:50:01;8.70;96.10
33067;DHT22;19428;49.024;8.366;2023-04-15T07:52:27;8.90;96.10
33067;DHT22;19428;49.024;8.366;2023-04-15T07:54:52;8.90;95.90
33067;DHT22;19428;49.024;8.366;2023-04-15T07:57:18;9.00;96.20
33067;DHT22;19428;49.024;8.366;2023-04-15T07:59:44;9.00;95.50
33067;DHT22;19428;49.024;8.366;2023-04-15T08:02:10;9.10;93.40
33067;DHT22;19428;49.024;8.366;2023-04-15T08:04:36;9.40;93.30
33067;DHT22;19428;49.024;8.366;2023-04-15T08:07:03;9.80;92.90
33067;DHT22;19428;49.024;8.366;2023-04-15T08:09:29;9.50;90.30
33067;DHT22;19428;49.024;8.366;2023-04-15T08:11:55;9.50;91.10
33067;DHT22;19428;49.024;8.366;2023-04-15T08:14:21;10.00;86.60
33067;DHT22;19428;49.024;8.366;2023-04-15T08:16:47;10.20;82.40
33067;DHT22;19428;49.024;8.366;2023-04-15T08:19:13;10.30;84.60
33067;DHT22;19428;49.024;8.366;2023-04-15T08:21:38;10.80;84.50
33067;DHT22;19428;49.024;8.366;2023-04-15T08:24:05;10.70;81.80
33067;DHT22;19428;49.024;8.366;2023-04-15T08:26:31;10.60;83.40
33067;DHT22;19428;49.024;8.366;2023-04-15T08:28:57;10.60;78.00
33067;DHT22;19428;49.024;8.366;2023-04-15T08:31:23;10.50;79.10
33067;DHT22;19428;49.024;8.366;2023-04-15T08:33:48;10.50;80.20
33067;DHT22;19428;49.024;8.366;2023-04-15T08:36:16;10.60;78.70
33067;DHT22;19428;49.024;8.366;2023-04-15T08:38:43;10.80;78.70
33067;DHT22;19428;49.024;8.366;2023-04-15T08:41:33;10.90;76.40
33067;DHT22;19428;49.024;8.366;2023-04-15T08:44:03;11.10;75.40
33067;DHT22;19428;49.024;8.366;2023-04-15T08:46:30;11.20;76.30
33067;DHT22;19428;49.024;8.366;2023-04-15T08:48:57;11.20;74.90
33067;DHT22;19428;49.024;8.366;2023-04-15T08:51:23;11.10;75.70
33067;DHT22;19428;49.024;8.366;2023-04-15T08:53:49;11.10;75.20
33067;DHT22;19428;49.024;8.366;2023-04-15T08:56:17;11.50;75.50
33067;DHT22;19428;49.024;8.366;2023-04-15T08:58:44;11.80;77.00
33067;DHT22;19428;49.024;8.366;2023-04-15T09:01:13;11.50;73.20
33067;DHT22;19428;49.024;8.366;2023-04-15T09:03:39;11.50;72.90
33067;DHT22;19428;49.024;8.366;2023-04-15T09:06:06;11.80;73.70
33067;DHT22;19428;49.024;8.366;2023-04-15T09:08:32;12.20;72.40
33067;DHT22;19428;49.024;8.366;2023-04-15T09:11:00;12.30;69.60
33067;DHT22;19428;49.024;8.366;2023-04-15T09:13:26;12.40;67.30
33067;DHT22;19428;49.024;8.366;2023-04-15T09:15:52;12.20;68.40
33067;DHT22;19428;49.024;8.366;2023-04-15T09:18:27;12.20;68.90
33067;DHT22;19428;49.024;8.366;2023-04-15T09:20:55;12.50;68.40
33067;DHT22;19428;49.024;8.366;2023-04-15T09:23:21;12.60;69.40
33067;DHT22;19428;49.024;8.366;2023-04-15T09:25:47;12.50;70.90
33067;DHT22;19428;49.024;8.366;2023-04-15T09:28:14;12.20;71.90
33067;DHT22;19428;49.024;8.366;2023-04-15T09:30:41;12.40;74.20
33067;DHT22;19428;49.024;8.366;2023-04-15T09:33:13;13.10;68.90
33067;DHT22;19428;49.024;8.366;2023-04-15T09:35:39;13.30;65.90
33067;DHT22;19428;49.024;8.366;2023-04-15T09:38:09;13.40;66.30
33067;DHT22;19428;49.024;8.366;2023-04-15T09:40:39;13.50;65.90
33067;DHT22;19428;49.024;8.366;2023-04-15T09:43:06;13.50;66.50
33067;DHT22;19428;49.024;8.366;2023-04-15T09:45:33;13.70;65.50
33067;DHT22;19428;49.024;8.366;2023-04-15T09:48:18;13.50;63.20
33067;DHT22;19428;49.024;8.366;2023-04-15T09:50:46;13.70;65.80
33067;DHT22;19428;49.024;8.366;2023-04-15T09:53:20;14.00;68.40
33067;DHT22;19428;49.024;8.366;2023-04-15T09:58:24;14.00;71.90
33067;DHT22;19428;49.024;8.366;2023-04-15T10:00:52;13.80;64.60
33067;DHT22;19428;49.024;8.366;2023-04-15T10:03:36;13.80;66.50
33067;DHT22;19428;49.024;8.366;2023-04-15T10:06:02;13.40;66.30
33067;DHT22;19428;49.024;8.366;2023-04-15T10:08:32;13.50;72.60
33067;DHT22;19428;49.024;8.366;2023-04-15T10:10:59;13.60;64.10
33067;DHT22;19428;49.024;8.366;2023-04-15T10:13:29;13.60;62.40
33067;DHT22;19428;49.024;8.366;2023-04-15T10:16:11;13.60;62.60
33067;DHT22;19428;49.024;8.366;2023-04-15T10:18:45;14.00;58.00
33067;DHT22;19428;49.024;8.366;2023-04-15T10:21:12;14.30;55.70
33067;DHT22;19428;49.024;8.366;2023-04-15T10:23:40;14.30;56.10
33067;DHT22;19428;49.024;8.366;2023-04-15T10:26:06;14.30;54.30
33067;DHT22;19428;49.024;8.366;2023-04-15T10:28:33;14.00;56.80
33067;DHT22;19428;49.024;8.366;2023-04-15T10:30:59;13.90;55.50
33067;DHT22;19428;49.024;8.366;2023-04-15T10:33:26;14.20;55.90
33067;DHT22;19428;49.024;8.366;2023-04-15T10:35:54;13.90;56.30
33067;DHT22;19428;49.024;8.366;2023-04-15T10:38:40;14.10;53.40
33067;DHT22;19428;49.024;8.366;2023-04-15T10:41:17;14.70;53.60
33067;DHT22;19428;49.024;8.366;2023-04-15T10:43:53;14.80;53.20
33067;DHT22;19428;49.024;8.366;2023-04-15T10:46:33;14.90;49.90
33067;DHT22;19428;49.024;8.366;2023-04-15T10:49:28;15.20;52.20
33067;DHT22;19428;49.024;8.366;2023-04-15T10:51:58;15.20;50.50
33067;DHT22;19428;49.024;8.366;2023-04-15T10:57:07;15.50;46.30
33067;DHT22;19428;49.024;8.366;2023-04-15T10:59:50;15.60;50.70
33067;DHT22;19428;49.024;8.366;2023-04-15T11:05:07;15.00;48.40
33067;DHT22;19428;49.024;8.366;2023-04-15T11:07:37;15.40;46.30
33067;DHT22;19428;49.024;8.366;2023-04-15T11:13:12;15.50;42.60
33067;DHT22;19428;49.024;8.366;2023-04-15T11:15:40;15.40;44.90
33067;DHT22;19428;49.024;8.366;2023-04-15T11:18:12;15.60;41.50
33067;DHT22;19428;49.024;8.366;2023-04-15T11:20:40;15.60;43.60
33067;DHT22;19428;49.024;8.366;2023-04-15T11:23:07;15.60;41.40
33067;DHT22;19428;49.024;8.366;2023-04-15T11:25:34;15.70;35.70
33067;DHT22;19428;49.024;8.366;2023-04-15T11:28:02;15.30;31.80
33067;DHT22;19428;49.024;8.366;2023-04-15T11:30:33;14.90;32.20
33067;DHT22;19428;49.024;8.366;2023-04-15T11:33:09;15.30;28.10
33067;DHT22;19428;49.024;8.366;2023-04-15T11:35:36;15.00;31.20
33067;DHT22;19428;49.024;8.366;2023-04-15T11:38:03;15.00;29.90
33067;DHT22;19428;49.024;8.366;2023-04-15T11:40:30;15.30;31.90
33067;DHT22;19428;49.024;8.366;2023-04-15T11:43:08;16.00;29.90
33067;DHT22;19428;49.024;8.366;2023-04-15T11:45:35;16.50;31.60
33067;DHT22;19428;49.024;8.366;2023-04-15T11:48:08;15.20;30.10
33067;DHT22;19428;49.024;8.366;2023-04-15T11:50:35;15.50;29.60
33067;DHT22;19428;49.024;8.366;2023-04-15T11:53:06;15.80;28.10
33067;DHT22;19428;49.024;8.366;2023-04-15T11:55:44;16.20;26.20
33067;DHT22;19428;49.024;8.366;2023-04-15T11:58:14;16.20;31.20
33067;DHT22;19428;49.024;8.366;2023-04-15T12:00:50;15.50;26.70
33067;DHT22;19428;49.024;8.366;2023-04-15T12:03:36;14.90;26.90
33067;DHT22;19428;49.024;8.366;2023-04-15T12:11:28;16.60;21.00
33067;DHT22;19428;49.024;8.366;2023-04-15T12:14:03;15.60;23.60
33067;DHT22;19428;49.024;8.366;2023-04-15T12:16:29;15.50;21.50
33067;DHT22;19428;49.024;8.366;2023-04-15T12:18:56;16.10;20.60
33067;DHT22;19428;49.024;8.366;2023-04-15T12:21:24;16.20;22.70
33067;DHT22;19428;49.024;8.366;2023-04-15T12:23:52;15.50;20.00
33067;DHT22;19428;49.024;8.366;2023-04-15T12:26:33;16.20;18.80
33067;DHT22;19428;49.024;8.366;2023-04-15T12:29:06;15.60;19.70
33067;DHT22;19428;49.024;8.366;2023-04-15T12:31:36;15.50;19.50
33067;DHT22;19428;49.024;8.366;2023-04-15T12:34:02;17.20;17.70
33067;DHT22;19428;49.024;8.366;2023-04-15T12:36:29;17.00;17.50
33067;DHT22;19428;49.024;8.366;2023-04-15T12:39:03;17.40;16.90
33067;DHT22;19428;49.024;8.366;2023-04-15T12:41:30;17.30;8.10
33067;DHT22;19428;49.024;8.366;2023-04-15T12:43:56;16.60;11.40
33067;DHT22;19428;49.024;8.366;2023-04-15T12:46:22;17.10;11.20
33067;DHT22;19428;49.024;8.366;2023-04-15T12:48:47;16.60;9.30
33067;DHT22;19428;49.024;8.366;2023-04-15T12:51:13;16.00;10.20
33067;DHT22;19428;49.024;8.366;2023-04-15T12:53:39;15.70;10.70
33067;DHT22;19428;49.024;8.366;2023-04-15T12:56:05;16.40;12.30
33067;DHT22;19428;49.024;8.366;2023-04-15T12:58:31;16.40;11.50
33067;DHT22;19428;49.024;8.366;2023-04-15T13:00:56;16.60;12.30
33067;DHT22;19428;49.024;8.366;2023-04-15T13:03:22;16.20;9.60
33067;DHT22;19428;49.024;8.366;2023-04-15T13:05:48;16.00;8.30
33067;DHT22;19428;49.024;8.366;2023-04-15T13:08:13;15.90;8.20
33067;DHT22;19428;49.024;8.366;2023-04-15T13:10:39;15.60;9.30
33067;DHT22;19428;49.024;8.366;2023-04-15T13:13:06;15.60;8.40
33067;DHT22;19428;49.024;8.366;2023-04-15T13:15:32;15.30;10.40
33067;DHT22;19428;49.024;8.366;2023-04-15T13:17:58;15.40;10.60
33067;DHT22;19428;49.024;8.366;2023-04-15T13:20:24;15.20;11.30
33067;DHT22;19428;49.024;8.366;2023-04-15T13:22:51;15.30;13.00
33067;DHT22;19428;49.024;8.366;2023-04-15T13:25:17;15.60;13.50
33067;DHT22;19428;49.024;8.366;2023-04-15T13:27:43;15.20;14.10
33067;DHT22;19428;49.024;8.366;2023-04-15T13:30:08;15.10;14.60
33067;DHT22;19428;49.024;8.366;2023-04-15T13:32:34;14.80;16.40
33067;DHT22;19428;49.024;8.366;2023-04-15T13:35:00;14.80;16.70
33067;DHT22;19428;49.024;8.366;2023-04-15T13:37:27;14.70;17.10
33067;DHT22;19428;49.024;8.366;2023-04-15T13:39:53;14.40;17.90
33067;DHT22;19428;49.024;8.366;2023-04-15T13:42:18;14.40;18.50
33067;DHT22;19428;49.024;8.366;2023-04-15T13:44:44;14.30;19.30
33067;DHT22;19428;49.024;8.366;2023-04-15T13:47:10;14.40;20.30
33067;DHT22;19428;49.024;8.366;2023-04-15T13:49:35;14.50;21.20
33067;DHT22;19428;49.024;8.366;2023-04-15T13:52:01;14.50;21.10
33067;DHT22;19428;49.024;8.366;2023-04-15T13:54:27;14.50;20.60
33067;DHT22;19428;49.024;8.366;2023-04-15T13:56:53;14.50;21.00
33067;DHT22;19428;49.024;8.366;2023-04-15T13:59:20;14.50;21.50
33067;DHT22;19428;49.024;8.366;2023-04-15T14:01:46;14.20;22.10
33067;DHT22;19428;49.024;8.366;2023-04-15T14:04:12;14.10;22.10
33067;DHT22;19428;49.024;8.366;2023-04-15T14:06:38;14.10;22.20
33067;DHT22;19428;49.024;8.366;2023-04-15T14:09:03;14.00;22.70
33067;DHT22;19428;49.024;8.366;2023-04-15T14:11:29;14.00;23.10
33067;DHT22;19428;49.024;8.366;2023-04-15T14:13:55;14.00;24.10
33067;DHT22;19428;49.024;8.366;2023-04-15T14:16:20;13.90;22.70
33067;DHT22;19428;49.024;8.366;2023-04-15T14:18:46;13.90;22.90
33067;DHT22;19428;49.024;8.366;2023-04-15T14:21:11;13.90;22.20
33067;DHT22;19428;49.024;8.366;2023-04-15T14:23:37;13.80;21.50
33067;DHT22;19428;49.024;8.366;2023-04-15T14:26:03;13.80;21.70
33067;DHT22;19428;49.024;8.366;2023-04-15T14:28:28;13.90;22.00
33067;DHT22;19428;49.024;8.366;2023-04-15T14:30:54;14.00;21.00
33067;DHT22;19428;49.024;8.366;2023-04-15T14:33:20;13.90;19.40
33067;DHT22;19428;49.024;8.366;2023-04-15T14:35:45;13.80;18.30
33067;DHT22;19428;49.024;8.366;2023-04-15T14:38:11;13.80;17.10
33067;DHT22;19428;49.024;8.366;2023-04-15T14:40:36;13.90;17.60
33067;DHT22;19428;49.024;8.366;2023-04-15T14:43:02;13.70;17.00
33067;DHT22;19428;49.024;8.366;2023-04-15T14:45:29;13.80;16.40
33067;DHT22;19428;49.024;8.366;2023-04-15T14:47:55;13.80;16.90
33067;DHT22;19428;49.024;8.366;2023-04-15T14:50:21;13.80;15.70
33067;DHT22;19428;49.024;8.366;2023-04-15T14:52:46;14.10;15.50
33067;DHT22;19428;49.024;8.366;2023-04-15T14:55:12;14.10;17.10
33067;DHT22;19428;49.024;8.366;2023-04-15T14:57:39;14.20;16.00
33067;DHT22;19428;49.024;8.366;2023-04-15T15:00:06;14.10;14.40
33067;DHT22;19428;49.024;8.366;2023-04-15T15:02:33;14.00;14.50
33067;DHT22;19428;49.024;8.366;2023-04-15T15:05:00;14.00;14.00
33067;DHT22;19428;49.024;8.366;2023-04-15T15:07:25;14.00;14.50
33067;DHT22;19428;49.024;8.366;2023-04-15T15:09:52;14.00;14.40
33067;DHT22;19428;49.024;8.366;2023-04-15T15:12:17;14.00;15.60
33067;DHT22;19428;49.024;8.366;2023-04-15T15:14:43;14.00;15.40
33067;DHT22;19428;49.024;8.366;2023-04-15T15:17:09;14.00;15.30
33067;DHT22;19428;49.024;8.366;2023-04-15T15:19:35;14.10;14.30
33067;DHT22;19428;49.024;8.366;2023-04-15T15:22:01;14.00;14.10
33067;DHT22;19428;49.024;8.366;2023-04-15T15:24:27;14.00;14.20
33067;DHT22;19428;49.024;8.366;2023-04-15T15:26:52;14.00;12.30
33067;DHT22;19428;49.024;8.366;2023-04-15T15:29:18;14.00;12.30
33067;DHT22;19428;49.024;8.366;2023-04-15T15:31:44;14.00;12.60
33067;DHT22;19428;49.024;8.366;2023-04-15T15:34:09;14.00;13.30
33067;DHT22;19428;49.024;8.366;2023-04-15T15:36:35;14.00;12.70
33067;DHT22;19428;49.024;8.366;2023-04-15T15:39:01;14.00;14.00
33067;DHT22;19428;49.024;8.366;2023-04-15T15:41:26;14.00;13.80
33067;DHT22;19428;49.024;8.366;2023-04-15T15:43:53;13.90;13.70
33067;DHT22;19428;49.024;8.366;2023-04-15T15:46:18;14.00;14.00
33067;DHT22;19428;49.024;8.366;2023-04-15T15:48:44;13.90;13.60
33067;DHT22;19428;49.024;8.366;2023-04-15T15:51:10;14.00;13.50
33067;DHT22;19428;49.024;8.366;2023-04-15T15:53:35;13.90;14.80